sensor_id;sensor_type;location;lat;lon;timestamp;P1;durP1;ratioP1;P2;durP2;ratioP2
5718;SDS011;2884;47.734;9.244;2022-07-29T00:00:11;2.00;;;1.73;;
5718;SDS011;2884;47.734;9.244;2022-07-29T00:02:37;2.23;;;2.03;;
5718;SDS011;2884;47.734;9.244;2022-07-29T00:05:03;2.30;;;2.00;;
5718;SDS011;2884;47.734;9.244;2022-07-29T00:07:29;2.23;;;2.13;;
5718;SDS011;2884;47.734;9.244;2022-07-29T00:09:55;4.03;;;2.20;;
5718;SDS011;2884;47.734;9.244;2022-07-29T00:12:21;2.50;;;1.97;;
5718;SDS011;2884;47.734;9.244;2022-07-29T00:14:48;3.63;;;2.13;;
5718;SDS011;2884;47.734;9.244;2022-07-29T00:17:13;2.63;;;2.43;;
5718;SDS011;2884;47.734;9.244;2022-07-29T00:19:39;2.53;;;2.30;;
5718;SDS011;2884;47.734;9.244;2022-07-29T00:22:07;2.30;;;2.00;;
5718;SDS011;2884;47.734;9.244;2022-07-29T00:24:33;3.67;;;2.10;;
5718;SDS011;2884;47.734;9.244;2022-07-29T00:26:58;4.77;;;2.17;;
5718;SDS011;2884;47.734;9.244;2022-07-29T00:29:23;2.33;;;2.10;;
5718;SDS011;2884;47.734;9.244;2022-07-29T00:31:49;3.93;;;1.97;;
5718;SDS011;2884;47.734;9.244;2022-07-29T00:34:15;3.20;;;2.53;;
5718;SDS011;2884;47.734;9.244;2022-07-29T00:37:00;2.23;;;2.13;;
5718;SDS011;2884;47.734;9.244;2022-07-29T00:39:25;5.10;;;2.63;;
5718;SDS011;2884;47.734;9.244;2022-07-29T00:41:51;2.63;;;2.43;;
5718;SDS011;2884;47.734;9.244;2022-07-29T00:44:17;7.13;;;2.10;;
5718;SDS011;2884;47.734;9.244;2022-07-29T00:46:42;6.43;;;2.57;;
5718;SDS011;2884;47.734;9.244;2022-07-29T00:49:07;4.53;;;2.93;;
5718;SDS011;2884;47.734;9.244;2022-07-29T00:51:37;6.37;;;2.70;;
5718;SDS011;2884;47.734;9.244;2022-07-29T00:54:03;2.53;;;2.43;;
5718;SDS011;2884;47.734;9.244;2022-07-29T00:56:32;2.90;;;2.53;;
5718;SDS011;2884;47.734;9.244;2022-07-29T00:58:58;4.20;;;3.17;;
5718;SDS011;2884;47.734;9.244;2022-07-29T01:01:25;4.33;;;2.60;;
5718;SDS011;2884;47.734;9.244;2022-07-29T01:03:50;3.00;;;2.20;;
5718;SDS011;2884;47.734;9.244;2022-07-29T01:06:16;5.80;;;2.57;;
5718;SDS011;2884;47.734;9.244;2022-07-29T01:08:43;7.40;;;2.57;;
5718;SDS011;2884;47.734;9.244;2022-07-29T01:11:09;3.00;;;2.77;;
5718;SDS011;2884;47.734;9.244;2022-07-29T01:13:35;2.90;;;2.70;;
5718;SDS011;2884;47.734;9.244;2022-07-29T01:16:07;3.20;;;2.70;;
5718;SDS011;2884;47.734;9.244;2022-07-29T01:18:44;2.60;;;2.40;;
5718;SDS011;2884;47.734;9.244;2022-07-29T01:27:18;2.80;;;2.60;;
5718;SDS011;2884;47.734;9.244;2022-07-29T01:29:59;5.57;;;2.70;;
5718;SDS011;2884;47.734;9.244;2022-07-29T01:32:26;7.20;;;2.90;;
5718;SDS011;2884;47.734;9.244;2022-07-29T01:35:03;10.63;;;2.67;;
5718;SDS011;2884;47.734;9.244;2022-07-29T01:42:52;3.30;;;2.83;;
5718;SDS011;2884;47.734;9.244;2022-07-29T01:45:23;3.20;;;3.00;;
5718;SDS011;2884;47.734;9.244;2022-07-29T01:47:58;3.00;;;2.80;;
5718;SDS011;2884;47.734;9.244;2022-07-29T01:50:33;4.30;;;3.47;;
5718;SDS011;2884;47.734;9.244;2022-07-29T01:53:04;3.53;;;3.17;;
5718;SDS011;2884;47.734;9.244;2022-07-29T01:55:34;4.43;;;3.47;;
5718;SDS011;2884;47.734;9.244;2022-07-29T01:58:00;3.43;;;3.13;;
5718;SDS011;2884;47.734;9.244;2022-07-29T02:00:28;3.63;;;3.33;;
5718;SDS011;2884;47.734;9.244;2022-07-29T02:02:56;6.93;;;3.80;;
5718;SDS011;2884;47.734;9.244;2022-07-29T02:05:24;4.60;;;4.03;;
5718;SDS011;2884;47.734;9.244;2022-07-29T02:07:50;9.20;;;4.10;;
5718;SDS011;2884;47.734;9.244;2022-07-29T02:10:20;5.93;;;4.80;;
5718;SDS011;2884;47.734;9.244;2022-07-29T02:12:47;10.50;;;4.20;;
5718;SDS011;2884;47.734;9.244;2022-07-29T02:15:13;5.40;;;4.73;;
5718;SDS011;2884;47.734;9.244;2022-07-29T02:17:49;7.30;;;5.10;;
5718;SDS011;2884;47.734;9.244;2022-07-29T02:20:17;5.20;;;4.70;;
5718;SDS011;2884;47.734;9.244;2022-07-29T02:22:43;8.33;;;4.57;;
5718;SDS011;2884;47.734;9.244;2022-07-29T02:25:09;5.37;;;4.97;;
5718;SDS011;2884;47.734;9.244;2022-07-29T02:27:36;7.57;;;4.73;;
5718;SDS011;2884;47.734;9.244;2022-07-29T02:30:03;9.37;;;5.80;;
5718;SDS011;2884;47.734;9.244;2022-07-29T02:32:30;13.43;;;5.30;;
5718;SDS011;2884;47.734;9.244;2022-07-29T02:34:57;4.53;;;4.23;;
5718;SDS011;2884;47.734;9.244;2022-07-29T02:37:23;4.80;;;4.50;;
5718;SDS011;2884;47.734;9.244;2022-07-29T02:39:50;5.50;;;4.03;;
5718;SDS011;2884;47.734;9.244;2022-07-29T02:42:18;6.67;;;4.87;;
5718;SDS011;2884;47.734;9.244;2022-07-29T02:44:46;7.70;;;5.10;;
5718;SDS011;2884;47.734;9.244;2022-07-29T02:53:17;4.70;;;4.23;;
5718;SDS011;2884;47.734;9.244;2022-07-29T02:55:30;5.97;;;5.47;;
5718;SDS011;2884;47.734;9.244;2022-07-29T02:57:59;6.20;;;4.70;;
5718;SDS011;2884;47.734;9.244;2022-07-29T03:00:27;5.90;;;4.90;;
5718;SDS011;2884;47.734;9.244;2022-07-29T03:02:55;5.33;;;4.43;;
5718;SDS011;2884;47.734;9.244;2022-07-29T03:05:22;4.67;;;4.27;;
5718;SDS011;2884;47.734;9.244;2022-07-29T03:07:52;4.70;;;4.30;;
5718;SDS011;2884;47.734;9.244;2022-07-29T03:10:20;5.07;;;4.63;;
5718;SDS011;2884;47.734;9.244;2022-07-29T03:12:46;5.13;;;4.73;;
5718;SDS011;2884;47.734;9.244;2022-07-29T03:15:12;4.47;;;4.20;;
5718;SDS011;2884;47.734;9.244;2022-07-29T03:17:38;5.33;;;4.73;;
5718;SDS011;2884;47.734;9.244;2022-07-29T03:20:07;5.07;;;4.77;;
5718;SDS011;2884;47.734;9.244;2022-07-29T03:22:38;8.93;;;4.70;;
5718;SDS011;2884;47.734;9.244;2022-07-29T03:25:09;5.90;;;4.43;;
5718;SDS011;2884;47.734;9.244;2022-07-29T03:27:35;9.53;;;5.40;;
5718;SDS011;2884;47.734;9.244;2022-07-29T03:30:00;5.03;;;4.47;;
5718;SDS011;2884;47.734;9.244;2022-07-29T03:32:26;8.23;;;5.03;;
5718;SDS011;2884;47.734;9.244;2022-07-29T03:34:52;5.17;;;4.77;;
5718;SDS011;2884;47.734;9.244;2022-07-29T03:37:17;5.30;;;4.83;;
5718;SDS011;2884;47.734;9.244;2022-07-29T03:39:43;5.90;;;5.40;;
5718;SDS011;2884;47.734;9.244;2022-07-29T03:42:10;5.33;;;4.80;;
5718;SDS011;2884;47.734;9.244;2022-07-29T03:44:37;5.30;;;5.00;;
5718;SDS011;2884;47.734;9.244;2022-07-29T03:47:04;6.63;;;5.10;;
5718;SDS011;2884;47.734;9.244;2022-07-29T03:49:31;6.77;;;4.90;;
5718;SDS011;2884;47.734;9.244;2022-07-29T03:51:58;5.60;;;5.20;;
5718;SDS011;2884;47.734;9.244;2022-07-29T03:54:23;6.10;;;5.10;;
5718;SDS011;2884;47.734;9.244;2022-07-29T03:56:49;6.00;;;5.40;;
5718;SDS011;2884;47.734;9.244;2022-07-29T03:59:15;6.30;;;5.53;;
5718;SDS011;2884;47.734;9.244;2022-07-29T04:01:41;5.93;;;5.47;;
5718;SDS011;2884;47.734;9.244;2022-07-29T04:04:07;5.80;;;5.40;;
5718;SDS011;2884;47.734;9.244;2022-07-29T04:06:40;8.93;;;5.47;;
5718;SDS011;2884;47.734;9.244;2022-07-29T04:09:06;6.27;;;5.70;;
5718;SDS011;2884;47.734;9.244;2022-07-29T04:11:32;6.17;;;5.77;;
5718;SDS011;2884;47.734;9.244;2022-07-29T04:13:58;6.97;;;6.37;;
5718;SDS011;2884;47.734;9.244;2022-07-29T04:16:23;5.97;;;5.47;;
5718;SDS011;2884;47.734;9.244;2022-07-29T04:18:49;6.13;;;5.50;;
5718;SDS011;2884;47.734;9.244;2022-07-29T04:21:14;14.70;;;6.10;;
5718;SDS011;2884;47.734;9.244;2022-07-29T04:23:40;9.00;;;6.30;;
5718;SDS011;2884;47.734;9.244;2022-07-29T04:26:06;10.43;;;6.00;;
5718;SDS011;2884;47.734;9.244;2022-07-29T04:28:35;6.20;;;5.80;;
5718;SDS011;2884;47.734;9.244;2022-07-29T04:31:00;6.27;;;5.87;;
5718;SDS011;2884;47.734;9.244;2022-07-29T04:33:26;6.33;;;5.83;;
5718;SDS011;2884;47.734;9.244;2022-07-29T04:35:52;6.50;;;5.90;;
5718;SDS011;2884;47.734;9.244;2022-07-29T04:38:18;6.33;;;5.73;;
5718;SDS011;2884;47.734;9.244;2022-07-29T04:40:43;6.03;;;5.63;;
5718;SDS011;2884;47.734;9.244;2022-07-29T04:43:09;6.20;;;5.10;;
5718;SDS011;2884;47.734;9.244;2022-07-29T04:45:34;5.00;;;4.70;;
5718;SDS011;2884;47.734;9.244;2022-07-29T04:48:00;10.50;;;4.90;;
5718;SDS011;2884;47.734;9.244;2022-07-29T04:50:26;7.23;;;5.13;;
5718;SDS011;2884;47.734;9.244;2022-07-29T04:52:54;6.07;;;5.60;;
5718;SDS011;2884;47.734;9.244;2022-07-29T04:55:20;7.77;;;4.80;;
5718;SDS011;2884;47.734;9.244;2022-07-29T04:57:45;4.80;;;4.50;;
5718;SDS011;2884;47.734;9.244;2022-07-29T05:00:11;5.57;;;4.63;;
5718;SDS011;2884;47.734;9.244;2022-07-29T05:02:37;5.07;;;4.67;;
5718;SDS011;2884;47.734;9.244;2022-07-29T05:05:03;7.00;;;5.37;;
5718;SDS011;2884;47.734;9.244;2022-07-29T05:07:28;5.87;;;5.30;;
5718;SDS011;2884;47.734;9.244;2022-07-29T05:09:54;8.27;;;4.97;;
5718;SDS011;2884;47.734;9.244;2022-07-29T05:12:23;6.63;;;5.50;;
5718;SDS011;2884;47.734;9.244;2022-07-29T05:14:50;5.67;;;5.27;;
5718;SDS011;2884;47.734;9.244;2022-07-29T05:17:15;7.00;;;5.47;;
5718;SDS011;2884;47.734;9.244;2022-07-29T05:19:41;7.27;;;5.97;;
5718;SDS011;2884;47.734;9.244;2022-07-29T05:22:06;5.30;;;4.93;;
5718;SDS011;2884;47.734;9.244;2022-07-29T05:24:32;9.97;;;5.07;;
5718;SDS011;2884;47.734;9.244;2022-07-29T05:26:57;6.93;;;4.90;;
5718;SDS011;2884;47.734;9.244;2022-07-29T05:29:23;16.37;;;5.20;;
5718;SDS011;2884;47.734;9.244;2022-07-29T05:31:48;5.10;;;4.70;;
5718;SDS011;2884;47.734;9.244;2022-07-29T05:34:16;5.67;;;4.90;;
5718;SDS011;2884;47.734;9.244;2022-07-29T05:36:42;4.97;;;4.37;;
5718;SDS011;2884;47.734;9.244;2022-07-29T05:39:07;6.43;;;4.43;;
5718;SDS011;2884;47.734;9.244;2022-07-29T05:41:33;5.10;;;4.70;;
5718;SDS011;2884;47.734;9.244;2022-07-29T05:43:58;4.97;;;4.27;;
5718;SDS011;2884;47.734;9.244;2022-07-29T05:46:24;6.90;;;4.33;;
5718;SDS011;2884;47.734;9.244;2022-07-29T05:48:49;10.10;;;4.90;;
5718;SDS011;2884;47.734;9.244;2022-07-29T05:51:15;6.23;;;4.50;;
5718;SDS011;2884;47.734;9.244;2022-07-29T05:53:41;5.53;;;4.87;;
5718;SDS011;2884;47.734;9.244;2022-07-29T05:56:07;7.57;;;4.47;;
5718;SDS011;2884;47.734;9.244;2022-07-29T05:58:34;5.73;;;5.03;;
5718;SDS011;2884;47.734;9.244;2022-07-29T06:01:02;6.27;;;4.37;;
5718;SDS011;2884;47.734;9.244;2022-07-29T06:03:28;11.93;;;4.97;;
5718;SDS011;2884;47.734;9.244;2022-07-29T06:05:54;20.03;;;6.60;;
5718;SDS011;2884;47.734;9.244;2022-07-29T06:08:20;6.37;;;5.00;;
5718;SDS011;2884;47.734;9.244;2022-07-29T06:10:46;12.60;;;6.10;;
5718;SDS011;2884;47.734;9.244;2022-07-29T06:13:11;6.73;;;5.10;;
5718;SDS011;2884;47.734;9.244;2022-07-29T06:15:37;12.83;;;5.57;;
5718;SDS011;2884;47.734;9.244;2022-07-29T06:18:03;7.77;;;5.20;;
5718;SDS011;2884;47.734;9.244;2022-07-29T06:20:32;5.07;;;4.67;;
5718;SDS011;2884;47.734;9.244;2022-07-29T06:22:58;8.83;;;4.27;;
5718;SDS011;2884;47.734;9.244;2022-07-29T06:25:24;5.43;;;4.43;;
5718;SDS011;2884;47.734;9.244;2022-07-29T06:27:49;4.23;;;3.93;;
5718;SDS011;2884;47.734;9.244;2022-07-29T06:30:15;5.33;;;4.37;;
5718;SDS011;2884;47.734;9.244;2022-07-29T06:32:40;6.73;;;4.40;;
5718;SDS011;2884;47.734;9.244;2022-07-29T06:35:06;4.63;;;4.23;;
5718;SDS011;2884;47.734;9.244;2022-07-29T06:37:35;12.07;;;7.23;;
5718;SDS011;2884;47.734;9.244;2022-07-29T06:40:01;4.93;;;4.43;;
5718;SDS011;2884;47.734;9.244;2022-07-29T06:42:45;7.13;;;4.10;;
5718;SDS011;2884;47.734;9.244;2022-07-29T06:45:11;4.43;;;4.03;;
5718;SDS011;2884;47.734;9.244;2022-07-29T06:47:42;6.30;;;3.90;;
5718;SDS011;2884;47.734;9.244;2022-07-29T06:50:07;5.13;;;4.00;;
5718;SDS011;2884;47.734;9.244;2022-07-29T06:52:37;4.50;;;4.10;;
5718;SDS011;2884;47.734;9.244;2022-07-29T06:55:21;6.53;;;3.80;;
5718;SDS011;2884;47.734;9.244;2022-07-29T06:57:47;3.43;;;3.13;;
5718;SDS011;2884;47.734;9.244;2022-07-29T07:00:12;3.87;;;3.50;;
5718;SDS011;2884;47.734;9.244;2022-07-29T07:02:38;3.57;;;2.70;;
5718;SDS011;2884;47.734;9.244;2022-07-29T07:05:04;7.00;;;3.17;;
5718;SDS011;2884;47.734;9.244;2022-07-29T07:07:30;4.03;;;2.97;;
5718;SDS011;2884;47.734;9.244;2022-07-29T07:09:56;7.80;;;2.90;;
5718;SDS011;2884;47.734;9.244;2022-07-29T07:12:25;3.93;;;3.17;;
5718;SDS011;2884;47.734;9.244;2022-07-29T07:14:50;2.90;;;2.40;;
5718;SDS011;2884;47.734;9.244;2022-07-29T07:17:15;3.57;;;2.27;;
5718;SDS011;2884;47.734;9.244;2022-07-29T07:19:44;5.40;;;2.60;;
5718;SDS011;2884;47.734;9.244;2022-07-29T07:22:10;2.90;;;2.60;;
5718;SDS011;2884;47.734;9.244;2022-07-29T07:24:35;7.60;;;2.90;;
5718;SDS011;2884;47.734;9.244;2022-07-29T07:27:01;2.37;;;2.27;;
5718;SDS011;2884;47.734;9.244;2022-07-29T07:29:27;2.50;;;2.30;;
5718;SDS011;2884;47.734;9.244;2022-07-29T07:31:52;2.33;;;2.13;;
5718;SDS011;2884;47.734;9.244;2022-07-29T07:34:18;4.17;;;2.70;;
5718;SDS011;2884;47.734;9.244;2022-07-29T07:36:43;3.00;;;2.47;;
5718;SDS011;2884;47.734;9.244;2022-07-29T07:39:09;2.67;;;2.47;;
5718;SDS011;2884;47.734;9.244;2022-07-29T07:41:35;5.97;;;2.83;;
5718;SDS011;2884;47.734;9.244;2022-07-29T07:44:00;3.23;;;2.80;;
5718;SDS011;2884;47.734;9.244;2022-07-29T07:46:25;2.60;;;2.20;;
5718;SDS011;2884;47.734;9.244;2022-07-29T07:48:54;3.30;;;2.73;;
5718;SDS011;2884;47.734;9.244;2022-07-29T07:51:20;3.70;;;2.67;;
5718;SDS011;2884;47.734;9.244;2022-07-29T07:53:45;3.40;;;3.10;;
5718;SDS011;2884;47.734;9.244;2022-07-29T07:56:15;2.93;;;2.73;;
5718;SDS011;2884;47.734;9.244;2022-07-29T07:58:40;3.37;;;2.67;;
5718;SDS011;2884;47.734;9.244;2022-07-29T08:01:06;3.17;;;2.50;;
5718;SDS011;2884;47.734;9.244;2022-07-29T08:03:36;3.13;;;2.30;;
5718;SDS011;2884;47.734;9.244;2022-07-29T08:06:02;1.83;;;1.70;;
5718;SDS011;2884;47.734;9.244;2022-07-29T08:08:28;2.40;;;2.20;;
5718;SDS011;2884;47.734;9.244;2022-07-29T08:10:54;3.03;;;2.50;;
5718;SDS011;2884;47.734;9.244;2022-07-29T08:13:24;2.60;;;2.40;;
5718;SDS011;2884;47.734;9.244;2022-07-29T08:15:53;5.00;;;2.23;;
5718;SDS011;2884;47.734;9.244;2022-07-29T08:18:36;3.73;;;3.07;;
5718;SDS011;2884;47.734;9.244;2022-07-29T08:21:03;2.73;;;2.30;;
5718;SDS011;2884;47.734;9.244;2022-07-29T08:23:29;2.70;;;2.23;;
5718;SDS011;2884;47.734;9.244;2022-07-29T08:26:04;3.30;;;2.50;;
5718;SDS011;2884;47.734;9.244;2022-07-29T08:28:30;2.20;;;1.83;;
5718;SDS011;2884;47.734;9.244;2022-07-29T08:30:56;1.80;;;1.70;;
5718;SDS011;2884;47.734;9.244;2022-07-29T08:33:21;1.90;;;1.80;;
5718;SDS011;2884;47.734;9.244;2022-07-29T08:35:47;1.80;;;1.70;;
5718;SDS011;2884;47.734;9.244;2022-07-29T08:38:12;3.00;;;2.10;;
5718;SDS011;2884;47.734;9.244;2022-07-29T08:40:39;2.20;;;1.77;;
5718;SDS011;2884;47.734;9.244;2022-07-29T08:43:05;2.77;;;2.13;;
5718;SDS011;2884;47.734;9.244;2022-07-29T08:45:36;2.20;;;2.10;;
5718;SDS011;2884;47.734;9.244;2022-07-29T08:48:07;5.20;;;3.27;;
5718;SDS011;2884;47.734;9.244;2022-07-29T08:50:42;3.00;;;2.53;;
5718;SDS011;2884;47.734;9.244;2022-07-29T08:53:13;3.70;;;2.20;;
5718;SDS011;2884;47.734;9.244;2022-07-29T08:55:42;3.20;;;2.90;;
5718;SDS011;2884;47.734;9.244;2022-07-29T08:58:10;3.83;;;2.70;;
5718;SDS011;2884;47.734;9.244;2022-07-29T09:00:37;3.17;;;2.33;;
5718;SDS011;2884;47.734;9.244;2022-07-29T09:03:06;3.50;;;1.97;;
5718;SDS011;2884;47.734;9.244;2022-07-29T09:05:33;5.90;;;2.10;;
5718;SDS011;2884;47.734;9.244;2022-07-29T09:07:59;3.97;;;3.23;;
5718;SDS011;2884;47.734;9.244;2022-07-29T09:10:25;3.07;;;2.77;;
5718;SDS011;2884;47.734;9.244;2022-07-29T09:12:51;4.20;;;3.77;;
5718;SDS011;2884;47.734;9.244;2022-07-29T09:15:17;3.47;;;2.60;;
5718;SDS011;2884;47.734;9.244;2022-07-29T09:17:47;5.10;;;3.47;;
5718;SDS011;2884;47.734;9.244;2022-07-29T09:20:21;3.50;;;3.20;;
5718;SDS011;2884;47.734;9.244;2022-07-29T09:22:48;4.30;;;3.10;;
5718;SDS011;2884;47.734;9.244;2022-07-29T09:25:38;6.20;;;3.70;;
5718;SDS011;2884;47.734;9.244;2022-07-29T09:28:09;3.37;;;3.10;;
5718;SDS011;2884;47.734;9.244;2022-07-29T09:30:35;5.40;;;3.00;;
5718;SDS011;2884;47.734;9.244;2022-07-29T09:33:01;7.80;;;3.10;;
5718;SDS011;2884;47.734;9.244;2022-07-29T09:35:28;3.37;;;3.07;;
5718;SDS011;2884;47.734;9.244;2022-07-29T09:37:55;3.30;;;2.73;;
5718;SDS011;2884;47.734;9.244;2022-07-29T09:40:25;4.73;;;3.43;;
5718;SDS011;2884;47.734;9.244;2022-07-29T09:42:52;3.10;;;2.87;;
5718;SDS011;2884;47.734;9.244;2022-07-29T09:45:32;6.10;;;3.30;;
5718;SDS011;2884;47.734;9.244;2022-07-29T09:47:58;14.77;;;3.67;;
5718;SDS011;2884;47.734;9.244;2022-07-29T09:50:35;5.20;;;3.63;;
5718;SDS011;2884;47.734;9.244;2022-07-29T09:53:02;3.90;;;3.07;;
5718;SDS011;2884;47.734;9.244;2022-07-29T09:55:28;4.93;;;2.80;;
5718;SDS011;2884;47.734;9.244;2022-07-29T09:57:53;10.57;;;4.03;;
5718;SDS011;2884;47.734;9.244;2022-07-29T10:00:42;4.47;;;3.57;;
5718;SDS011;2884;47.734;9.244;2022-07-29T10:03:10;3.77;;;3.07;;
5718;SDS011;2884;47.734;9.244;2022-07-29T10:05:35;3.33;;;3.03;;
5718;SDS011;2884;47.734;9.244;2022-07-29T10:08:01;3.30;;;3.00;;
5718;SDS011;2884;47.734;9.244;2022-07-29T10:12:56;3.80;;;3.40;;
5718;SDS011;2884;47.734;9.244;2022-07-29T10:15:23;3.20;;;2.90;;
5718;SDS011;2884;47.734;9.244;2022-07-29T10:17:51;7.27;;;3.20;;
5718;SDS011;2884;47.734;9.244;2022-07-29T10:20:17;5.60;;;3.10;;
5718;SDS011;2884;47.734;9.244;2022-07-29T10:22:43;3.00;;;2.50;;
5718;SDS011;2884;47.734;9.244;2022-07-29T10:25:09;3.70;;;3.40;;
5718;SDS011;2884;47.734;9.244;2022-07-29T10:27:36;3.70;;;2.70;;
5718;SDS011;2884;47.734;9.244;2022-07-29T10:30:02;2.70;;;2.50;;
5718;SDS011;2884;47.734;9.244;2022-07-29T10:35:08;2.80;;;2.20;;
5718;SDS011;2884;47.734;9.244;2022-07-29T10:37:41;2.20;;;2.10;;
5718;SDS011;2884;47.734;9.244;2022-07-29T10:40:26;5.00;;;2.33;;
5718;SDS011;2884;47.734;9.244;2022-07-29T10:43:17;3.83;;;1.90;;
5718;SDS011;2884;47.734;9.244;2022-07-29T10:45:48;2.57;;;2.37;;
5718;SDS011;2884;47.734;9.244;2022-07-29T10:48:14;3.03;;;2.13;;
5718;SDS011;2884;47.734;9.244;2022-07-29T10:50:59;2.63;;;2.30;;
5718;SDS011;2884;47.734;9.244;2022-07-29T10:56:26;4.53;;;1.90;;
5718;SDS011;2884;47.734;9.244;2022-07-29T11:01:50;2.80;;;2.00;;
5718;SDS011;2884;47.734;9.244;2022-07-29T11:04:16;2.03;;;1.93;;
5718;SDS011;2884;47.734;9.244;2022-07-29T11:07:10;3.63;;;2.67;;
5718;SDS011;2884;47.734;9.244;2022-07-29T11:09:37;2.53;;;1.83;;
5718;SDS011;2884;47.734;9.244;2022-07-29T11:12:06;2.60;;;1.53;;
5718;SDS011;2884;47.734;9.244;2022-07-29T11:15:01;1.67;;;1.57;;
5718;SDS011;2884;47.734;9.244;2022-07-29T11:17:28;1.57;;;1.47;;
5718;SDS011;2884;47.734;9.244;2022-07-29T11:22:56;1.60;;;1.50;;
5718;SDS011;2884;47.734;9.244;2022-07-29T11:25:23;2.63;;;1.77;;
5718;SDS011;2884;47.734;9.244;2022-07-29T11:27:48;4.27;;;2.07;;
5718;SDS011;2884;47.734;9.244;2022-07-29T11:30:17;2.00;;;1.80;;
5718;SDS011;2884;47.734;9.244;2022-07-29T11:32:43;2.50;;;1.57;;
5718;SDS011;2884;47.734;9.244;2022-07-29T11:35:13;1.90;;;1.80;;
5718;SDS011;2884;47.734;9.244;2022-07-29T11:37:46;2.10;;;1.33;;
5718;SDS011;2884;47.734;9.244;2022-07-29T11:40:12;2.80;;;1.93;;
5718;SDS011;2884;47.734;9.244;2022-07-29T11:42:39;1.83;;;1.60;;
5718;SDS011;2884;47.734;9.244;2022-07-29T11:45:07;3.17;;;2.10;;
5718;SDS011;2884;47.734;9.244;2022-07-29T11:47:57;1.87;;;1.73;;
5718;SDS011;2884;47.734;9.244;2022-07-29T11:50:30;3.03;;;1.87;;
5718;SDS011;2884;47.734;9.244;2022-07-29T11:53:00;1.53;;;1.43;;
5718;SDS011;2884;47.734;9.244;2022-07-29T11:55:27;1.80;;;1.70;;
5718;SDS011;2884;47.734;9.244;2022-07-29T11:57:56;2.90;;;2.60;;
5718;SDS011;2884;47.734;9.244;2022-07-29T12:02:55;3.00;;;2.80;;
5718;SDS011;2884;47.734;9.244;2022-07-29T12:05:24;3.37;;;2.50;;
5718;SDS011;2884;47.734;9.244;2022-07-29T12:08:11;4.50;;;2.10;;
5718;SDS011;2884;47.734;9.244;2022-07-29T12:10:44;2.03;;;1.90;;
5718;SDS011;2884;47.734;9.244;2022-07-29T12:13:11;5.33;;;2.10;;
5718;SDS011;2884;47.734;9.244;2022-07-29T12:15:37;2.07;;;1.70;;
5718;SDS011;2884;47.734;9.244;2022-07-29T12:18:10;2.33;;;1.73;;
5718;SDS011;2884;47.734;9.244;2022-07-29T12:20:36;5.53;;;1.93;;
5718;SDS011;2884;47.734;9.244;2022-07-29T12:23:06;5.00;;;2.40;;
5718;SDS011;2884;47.734;9.244;2022-07-29T12:25:33;2.87;;;2.43;;
5718;SDS011;2884;47.734;9.244;2022-07-29T12:28:01;2.20;;;2.00;;
5718;SDS011;2884;47.734;9.244;2022-07-29T12:30:38;1.83;;;1.73;;
5718;SDS011;2884;47.734;9.244;2022-07-29T12:33:13;5.77;;;2.40;;
5718;SDS011;2884;47.734;9.244;2022-07-29T12:35:39;3.30;;;1.93;;
5718;SDS011;2884;47.734;9.244;2022-07-29T12:38:06;2.30;;;1.97;;
5718;SDS011;2884;47.734;9.244;2022-07-29T12:40:35;4.60;;;2.47;;
5718;SDS011;2884;47.734;9.244;2022-07-29T12:45:43;2.90;;;2.30;;
5718;SDS011;2884;47.734;9.244;2022-07-29T12:48:15;6.23;;;2.83;;
5718;SDS011;2884;47.734;9.244;2022-07-29T12:53:19;3.77;;;2.60;;
5718;SDS011;2884;47.734;9.244;2022-07-29T12:55:48;3.40;;;2.80;;
5718;SDS011;2884;47.734;9.244;2022-07-29T13:03:48;4.43;;;2.93;;
5718;SDS011;2884;47.734;9.244;2022-07-29T13:11:33;3.43;;;2.47;;
5718;SDS011;2884;47.734;9.244;2022-07-29T13:14:09;2.50;;;2.07;;
5718;SDS011;2884;47.734;9.244;2022-07-29T13:16:36;3.53;;;2.50;;
5718;SDS011;2884;47.734;9.244;2022-07-29T13:19:07;2.57;;;2.37;;
5718;SDS011;2884;47.734;9.244;2022-07-29T13:21:37;5.90;;;2.77;;
5718;SDS011;2884;47.734;9.244;2022-07-29T13:24:04;3.33;;;2.40;;
5718;SDS011;2884;47.734;9.244;2022-07-29T13:26:31;5.07;;;2.53;;
5718;SDS011;2884;47.734;9.244;2022-07-29T13:28:56;5.27;;;2.83;;
5718;SDS011;2884;47.734;9.244;2022-07-29T13:31:22;7.97;;;2.87;;
5718;SDS011;2884;47.734;9.244;2022-07-29T13:33:50;3.93;;;3.30;;
5718;SDS011;2884;47.734;9.244;2022-07-29T13:36:15;5.10;;;3.07;;
5718;SDS011;2884;47.734;9.244;2022-07-29T13:38:50;2.60;;;2.40;;
5718;SDS011;2884;47.734;9.244;2022-07-29T13:41:34;4.33;;;3.00;;
5718;SDS011;2884;47.734;9.244;2022-07-29T13:44:00;3.97;;;3.23;;
5718;SDS011;2884;47.734;9.244;2022-07-29T13:46:25;3.73;;;3.40;;
5718;SDS011;2884;47.734;9.244;2022-07-29T13:48:50;6.27;;;3.30;;
5718;SDS011;2884;47.734;9.244;2022-07-29T13:51:16;3.50;;;3.17;;
5718;SDS011;2884;47.734;9.244;2022-07-29T13:53:42;3.70;;;3.40;;
5718;SDS011;2884;47.734;9.244;2022-07-29T13:56:07;3.50;;;3.20;;
5718;SDS011;2884;47.734;9.244;2022-07-29T13:58:33;4.50;;;3.87;;
5718;SDS011;2884;47.734;9.244;2022-07-29T14:00:59;4.07;;;3.77;;
5718;SDS011;2884;47.734;9.244;2022-07-29T14:03:25;4.07;;;3.70;;
5718;SDS011;2884;47.734;9.244;2022-07-29T14:05:50;4.93;;;3.57;;
5718;SDS011;2884;47.734;9.244;2022-07-29T14:08:18;5.77;;;3.77;;
5718;SDS011;2884;47.734;9.244;2022-07-29T14:10:44;4.00;;;3.10;;
5718;SDS011;2884;47.734;9.244;2022-07-29T14:13:09;5.27;;;3.67;;
5718;SDS011;2884;47.734;9.244;2022-07-29T14:15:35;5.60;;;3.50;;
5718;SDS011;2884;47.734;9.244;2022-07-29T14:18:01;8.63;;;3.43;;
5718;SDS011;2884;47.734;9.244;2022-07-29T14:20:27;4.80;;;3.37;;
5718;SDS011;2884;47.734;9.244;2022-07-29T14:22:56;3.40;;;2.73;;
5718;SDS011;2884;47.734;9.244;2022-07-29T14:25:22;3.83;;;2.90;;
5718;SDS011;2884;47.734;9.244;2022-07-29T14:27:48;3.13;;;2.90;;
5718;SDS011;2884;47.734;9.244;2022-07-29T14:30:14;3.80;;;3.30;;
5718;SDS011;2884;47.734;9.244;2022-07-29T14:32:39;8.00;;;3.03;;
5718;SDS011;2884;47.734;9.244;2022-07-29T14:35:08;2.80;;;2.60;;
5718;SDS011;2884;47.734;9.244;2022-07-29T14:37:33;4.57;;;3.60;;
5718;SDS011;2884;47.734;9.244;2022-07-29T14:40:00;3.30;;;3.00;;
5718;SDS011;2884;47.734;9.244;2022-07-29T14:42:29;3.90;;;3.50;;
5718;SDS011;2884;47.734;9.244;2022-07-29T14:44:56;2.83;;;2.60;;
5718;SDS011;2884;47.734;9.244;2022-07-29T14:47:22;3.10;;;2.80;;
5718;SDS011;2884;47.734;9.244;2022-07-29T14:49:48;4.27;;;2.90;;
5718;SDS011;2884;47.734;9.244;2022-07-29T14:52:14;8.23;;;3.73;;
5718;SDS011;2884;47.734;9.244;2022-07-29T14:54:40;6.47;;;3.67;;
5718;SDS011;2884;47.734;9.244;2022-07-29T14:57:05;5.50;;;3.63;;
5718;SDS011;2884;47.734;9.244;2022-07-29T14:59:31;4.03;;;3.63;;
5718;SDS011;2884;47.734;9.244;2022-07-29T15:01:56;3.90;;;3.57;;
5718;SDS011;2884;47.734;9.244;2022-07-29T15:04:22;6.13;;;3.80;;
5718;SDS011;2884;47.734;9.244;2022-07-29T15:06:48;10.10;;;4.00;;
5718;SDS011;2884;47.734;9.244;2022-07-29T15:09:13;4.87;;;4.13;;
5718;SDS011;2884;47.734;9.244;2022-07-29T15:11:39;8.33;;;3.90;;
5718;SDS011;2884;47.734;9.244;2022-07-29T15:14:05;7.20;;;4.00;;
5718;SDS011;2884;47.734;9.244;2022-07-29T15:16:31;6.90;;;4.43;;
5718;SDS011;2884;47.734;9.244;2022-07-29T15:18:56;6.90;;;4.10;;
5718;SDS011;2884;47.734;9.244;2022-07-29T15:21:23;7.00;;;4.80;;
5718;SDS011;2884;47.734;9.244;2022-07-29T15:23:49;9.20;;;4.80;;
5718;SDS011;2884;47.734;9.244;2022-07-29T15:26:14;5.60;;;4.10;;
5718;SDS011;2884;47.734;9.244;2022-07-29T15:28:40;12.60;;;5.07;;
5718;SDS011;2884;47.734;9.244;2022-07-29T15:31:06;5.73;;;4.30;;
5718;SDS011;2884;47.734;9.244;2022-07-29T15:33:31;7.07;;;4.60;;
5718;SDS011;2884;47.734;9.244;2022-07-29T15:35:57;6.03;;;4.00;;
5718;SDS011;2884;47.734;9.244;2022-07-29T15:38:22;5.00;;;3.97;;
5718;SDS011;2884;47.734;9.244;2022-07-29T15:40:48;7.10;;;4.40;;
5718;SDS011;2884;47.734;9.244;2022-07-29T15:43:14;19.10;;;5.00;;
5718;SDS011;2884;47.734;9.244;2022-07-29T15:45:40;5.77;;;3.90;;
5718;SDS011;2884;47.734;9.244;2022-07-29T15:48:07;4.00;;;3.70;;
5718;SDS011;2884;47.734;9.244;2022-07-29T15:50:33;5.23;;;4.40;;
5718;SDS011;2884;47.734;9.244;2022-07-29T15:52:59;5.30;;;4.20;;
5718;SDS011;2884;47.734;9.244;2022-07-29T15:55:25;6.23;;;4.00;;
5718;SDS011;2884;47.734;9.244;2022-07-29T15:57:51;4.97;;;4.13;;
5718;SDS011;2884;47.734;9.244;2022-07-29T16:00:16;4.50;;;4.10;;
5718;SDS011;2884;47.734;9.244;2022-07-29T16:02:42;5.60;;;4.37;;
5718;SDS011;2884;47.734;9.244;2022-07-29T16:05:08;12.73;;;4.63;;
5718;SDS011;2884;47.734;9.244;2022-07-29T16:07:37;4.73;;;3.87;;